Time;durP1;ratioP1;P1;durP2;ratioP2;P2;SDS_P1;SDS_P2;PMS_P1;PMS_P2;Temp;Humidity;BMP_temperature;BMP_pressure;BME280_temperature;BME280_humidity;BME280_pressure;Samples;Min_cycle;Max_cycle;Signal;HPM_P1;HPM_P2
2023/03/14 00:01:45;;;;;;;;;;;11.20;99.90;;;;;;4968211;28;19980;-77
2023/03/14 00:04:13;;;;;;;;;;;11.20;99.90;;;;;;4976569;28;19961;-77
2023/03/14 00:06:40;;;;;;;;;;;11.30;99.90;;;;;;4990667;28;20477;-76
2023/03/14 00:09:06;;;;;;;;;;;11.30;99.90;;;;;;4974434;28;19937;-76
2023/03/14 00:11:33;;;;;;;;;;;11.40;99.90;;;;;;4972771;28;20323;-76
2023/03/14 00:14:00;;;;;;;;;;;11.50;99.90;;;;;;4970064;28;19961;-76
2023/03/14 00:16:27;;;;;;;;;;;11.50;99.90;;;;;;4972250;28;20020;-75
2023/03/14 00:18:54;;;;;;;;;;;11.50;99.90;;;;;;4971529;28;19926;-76
2023/03/14 00:21:22;;;;;;;;;;;11.50;99.90;;;;;;4975830;28;20532;-76
2023/03/14 00:23:48;;;;;;;;;;;11.50;99.90;;;;;;4971599;28;19933;-76
2023/03/14 00:26:18;;;;;;;;;;;11.50;99.90;;;;;;4969917;28;19948;-76
2023/03/14 00:28:45;;;;;;;;;;;11.50;99.90;;;;;;4969461;28;19933;-76
2023/03/14 00:31:12;;;;;;;;;;;11.60;99.90;;;;;;4973627;28;20402;-76
2023/03/14 00:33:41;;;;;;;;;;;11.60;99.90;;;;;;4969586;28;20000;-76
2023/03/14 00:36:09;;;;;;;;;;;11.70;99.90;;;;;;4969442;28;19926;-75
2023/03/14 00:38:39;;;;;;;;;;;11.60;99.90;;;;;;4978125;28;20021;-75
2023/03/14 00:41:06;;;;;;;;;;;11.50;99.90;;;;;;4976588;28;19922;-76
2023/03/14 00:43:33;;;;;;;;;;;11.50;99.90;;;;;;4977287;28;19933;-76
2023/03/14 00:46:00;;;;;;;;;;;11.40;99.90;;;;;;4969276;28;19929;-77
2023/03/14 00:48:27;;;;;;;;;;;11.30;99.90;;;;;;4972828;28;19934;-76
2023/03/14 00:50:54;;;;;;;;;;;11.10;99.90;;;;;;4966441;28;19925;-77
2023/03/14 00:53:20;;;;;;;;;;;11.10;99.90;;;;;;4969137;28;19922;-75
2023/03/14 00:55:49;;;;;;;;;;;11.00;99.90;;;;;;4969846;28;19933;-76
2023/03/14 00:58:17;;;;;;;;;;;10.80;99.90;;;;;;4970667;28;20013;-76
2023/03/14 01:00:44;;;;;;;;;;;10.80;99.90;;;;;;4974245;28;19926;-76
2023/03/14 01:03:11;;;;;;;;;;;10.80;99.90;;;;;;4974482;28;20041;-76
2023/03/14 01:05:38;;;;;;;;;;;10.70;99.90;;;;;;4974235;28;19929;-75
2023/03/14 01:08:06;;;;;;;;;;;10.70;99.90;;;;;;4978328;28;19926;-75
2023/03/14 01:10:34;;;;;;;;;;;10.60;99.90;;;;;;4972657;28;20453;-75
2023/03/14 01:13:02;;;;;;;;;;;10.60;99.90;;;;;;4968857;28;20303;-76
2023/03/14 01:15:29;;;;;;;;;;;10.50;99.90;;;;;;4969306;28;19937;-76
2023/03/14 01:17:56;;;;;;;;;;;10.50;99.90;;;;;;4969907;28;20263;-76
2023/03/14 01:20:23;;;;;;;;;;;11.60;99.90;;;;;;4968381;28;19926;-76
2023/03/14 01:22:50;;;;;;;;;;;10.50;99.90;;;;;;4968857;28;20001;-76
2023/03/14 01:25:17;;;;;;;;;;;10.50;99.90;;;;;;4969804;28;19933;-76
2023/03/14 01:27:44;;;;;;;;;;;10.50;99.90;;;;;;4971817;28;19948;-77
2023/03/14 01:30:13;;;;;;;;;;;10.50;99.90;;;;;;4973993;28;20231;-77
2023/03/14 01:32:40;;;;;;;;;;;10.50;99.90;;;;;;4969832;28;19926;-76
2023/03/14 01:35:07;;;;;;;;;;;10.50;99.90;;;;;;4968544;28;19922;-76
2023/03/14 01:37:35;;;;;;;;;;;10.50;99.90;;;;;;4969471;28;20467;-76
2023/03/14 01:40:03;;;;;;;;;;;10.40;99.90;;;;;;4970878;28;19975;-76
2023/03/14 01:42:30;;;;;;;;;;;10.40;99.90;;;;;;4968188;28;20411;-76
2023/03/14 01:44:58;;;;;;;;;;;10.40;99.90;;;;;;4970573;28;19961;-76
2023/03/14 01:47:26;;;;;;;;;;;10.30;99.90;;;;;;4969099;28;20262;-76
2023/03/14 01:49:54;;;;;;;;;;;10.30;99.90;;;;;;4963662;28;19963;-76
2023/03/14 01:52:23;;;;;;;;;;;10.30;99.90;;;;;;4978345;28;19985;-76
2023/03/14 01:54:52;;;;;;;;;;;10.20;99.90;;;;;;4977612;28;19948;-76
2023/03/14 01:57:21;;;;;;;;;;;10.30;99.90;;;;;;4979219;28;19930;-77
2023/03/14 01:59:50;;;;;;;;;;;10.30;99.90;;;;;;4972997;28;19934;-77
2023/03/14 02:02:17;;;;;;;;;;;9.90;99.90;;;;;;4972149;28;20423;-76
2023/03/14 02:04:46;;;;;;;;;;;10.30;99.90;;;;;;4986245;28;19937;-76
2023/03/14 02:10:44;;;;;;;;;;;10.30;99.90;;;;;;4968800;28;20409;-76
2023/03/14 02:13:12;;;;;;;;;;;10.30;99.90;;;;;;4967487;28;19922;-76
2023/03/14 02:15:48;;;;;;;;;;;10.30;99.90;;;;;;4969363;28;19930;-76
2023/03/14 02:18:32;;;;;;;;;;;10.30;99.90;;;;;;4966123;28;19957;-77
2023/03/14 02:21:09;;;;;;;;;;;10.30;99.90;;;;;;4968944;28;19933;-77
2023/03/14 02:23:43;;;;;;;;;;;10.30;99.90;;;;;;4990316;28;19927;-77
2023/03/14 02:26:13;;;;;;;;;;;10.40;99.90;;;;;;4968621;28;19926;-77
2023/03/14 02:28:41;;;;;;;;;;;10.40;99.90;;;;;;4968953;28;19926;-76
2023/03/14 02:31:09;;;;;;;;;;;10.40;99.90;;;;;;4983211;28;19926;-76
2023/03/14 02:33:36;;;;;;;;;;;10.40;99.90;;;;;;4966537;28;19922;-76
2023/03/14 02:36:06;;;;;;;;;;;10.40;99.90;;;;;;4968231;28;19988;-76
2023/03/14 02:38:36;;;;;;;;;;;10.40;99.90;;;;;;4968398;28;20388;-76
2023/03/14 02:41:05;;;;;;;;;;;10.40;99.90;;;;;;4967695;28;20395;-77
2023/03/14 02:43:36;;;;;;;;;;;10.40;99.90;;;;;;4968178;28;19926;-76
2023/03/14 02:46:11;;;;;;;;;;;10.50;99.90;;;;;;4968020;28;20356;-76
2023/03/14 02:48:39;;;;;;;;;;;10.50;99.90;;;;;;4983287;28;19921;-76
2023/03/14 02:51:06;;;;;;;;;;;10.50;99.90;;;;;;4961010;28;19922;-76
2023/03/14 02:53:34;;;;;;;;;;;10.50;99.90;;;;;;4969603;28;20368;-75
2023/03/14 02:56:06;;;;;;;;;;;10.40;99.90;;;;;;4962856;28;19922;-76
2023/03/14 02:58:34;;;;;;;;;;;10.40;99.90;;;;;;4966911;28;20547;-76
2023/03/14 03:01:11;;;;;;;;;;;10.40;99.90;;;;;;4967617;28;19944;-77
2023/03/14 03:03:38;;;;;;;;;;;10.40;99.90;;;;;;4967193;28;19934;-76
2023/03/14 03:06:05;;;;;;;;;;;10.50;99.90;;;;;;4967523;28;20490;-76
2023/03/14 03:08:32;;;;;;;;;;;10.40;99.90;;;;;;4966091;28;20362;-75
2023/03/14 03:11:00;;;;;;;;;;;10.40;99.90;;;;;;4966514;28;19926;-76
2023/03/14 03:13:29;;;;;;;;;;;10.50;99.90;;;;;;4967233;28;19926;-76
2023/03/14 03:15:57;;;;;;;;;;;10.50;99.90;;;;;;4967743;28;19930;-77
2023/03/14 03:18:25;;;;;;;;;;;10.40;99.90;;;;;;4969786;28;19947;-76
2023/03/14 03:20:52;;;;;;;;;;;10.50;99.90;;;;;;4974208;28;19929;-76
2023/03/14 03:23:19;;;;;;;;;;;10.40;99.90;;;;;;4967370;28;19921;-76
2023/03/14 03:25:48;;;;;;;;;;;10.50;99.90;;;;;;4969000;28;20020;-76
2023/03/14 03:28:15;;;;;;;;;;;10.50;99.90;;;;;;4967727;28;19996;-75
2023/03/14 03:30:43;;;;;;;;;;;10.50;99.90;;;;;;4967948;28;20328;-76
2023/03/14 03:33:10;;;;;;;;;;;10.50;99.90;;;;;;4967665;28;19925;-76
2023/03/14 03:35:43;;;;;;;;;;;10.50;99.90;;;;;;4969258;28;19926;-76
2023/03/14 03:38:11;;;;;;;;;;;10.50;99.90;;;;;;4988092;28;19949;-77
2023/03/14 03:40:38;;;;;;;;;;;10.50;99.90;;;;;;4966851;28;19934;-77
2023/03/14 03:43:05;;;;;;;;;;;10.50;99.90;;;;;;4966952;28;19933;-77
2023/03/14 03:45:36;;;;;;;;;;;10.40;99.90;;;;;;4967109;28;19926;-77
2023/03/14 03:48:03;;;;;;;;;;;10.30;99.90;;;;;;4966817;28;20286;-76
2023/03/14 03:50:30;;;;;;;;;;;10.30;99.90;;;;;;4971171;28;19957;-76
2023/03/14 03:52:58;;;;;;;;;;;10.20;99.90;;;;;;4968169;28;19926;-76
2023/03/14 03:55:25;;;;;;;;;;;10.20;99.90;;;;;;4966703;28;19948;-76
2023/03/14 03:57:53;;;;;;;;;;;10.10;99.90;;;;;;4967036;28;19949;-76
2023/03/14 04:00:19;;;;;;;;;;;10.10;99.90;;;;;;4969611;28;19926;-76
2023/03/14 04:02:47;;;;;;;;;;;10.10;99.90;;;;;;4969455;28;19929;-76
2023/03/14 04:05:17;;;;;;;;;;;10.10;99.90;;;;;;4969972;28;20308;-76
2023/03/14 04:07:50;;;;;;;;;;;10.10;99.90;;;;;;4967364;28;20020;-76
2023/03/14 04:10:24;;;;;;;;;;;10.10;99.90;;;;;;4973523;28;19957;-76
2023/03/14 04:13:03;;;;;;;;;;;10.10;99.90;;;;;;4968099;28;19929;-77
2023/03/14 04:15:33;;;;;;;;;;;10.10;99.90;;;;;;4968076;28;20021;-76
2023/03/14 04:18:03;;;;;;;;;;;10.10;99.90;;;;;;4969409;28;20441;-76
2023/03/14 04:20:31;;;;;;;;;;;10.00;99.90;;;;;;4972284;28;19939;-76
2023/03/14 04:22:58;;;;;;;;;;;9.90;99.90;;;;;;4973482;28;20000;-76
2023/03/14 04:25:28;;;;;;;;;;;9.90;99.90;;;;;;4973529;28;19938;-76
2023/03/14 04:27:57;;;;;;;;;;;9.80;99.90;;;;;;4970016;28;19926;-76
2023/03/14 04:30:28;;;;;;;;;;;9.80;99.90;;;;;;4970885;28;19922;-76
2023/03/14 04:33:09;;;;;;;;;;;9.70;99.90;;;;;;5481266;23;19929;-77
2023/03/14 04:35:42;;;;;;;;;;;9.70;99.90;;;;;;4983283;28;19925;-77
2023/03/14 04:38:12;;;;;;;;;;;9.60;99.90;;;;;;4992037;28;20453;-76
2023/03/14 04:40:42;;;;;;;;;;;9.60;99.90;;;;;;4972104;28;19976;-77
2023/03/14 04:43:10;;;;;;;;;;;9.50;99.90;;;;;;4975916;28;20437;-77
2023/03/14 04:45:42;;;;;;;;;;;9.50;99.90;;;;;;4973244;28;20359;-77
2023/03/14 04:48:09;;;;;;;;;;;9.50;99.90;;;;;;4984981;28;20354;-78
2023/03/14 04:50:36;;;;;;;;;;;9.40;99.90;;;;;;4980247;28;19926;-78
2023/03/14 04:53:03;;;;;;;15.40;3.63;;;9.40;99.90;;;;;;4981409;28;20238;-78
2023/03/14 04:55:32;;;;;;;18.83;4.53;;;9.40;99.90;;;;;;4969100;28;20239;-78
2023/03/14 04:58:01;;;;;;;13.87;3.33;;;9.30;99.90;;;;;;4985427;28;20626;-78
2023/03/14 05:00:27;;;;;;;19.07;4.77;;;9.30;99.90;;;;;;4981278;28;20239;-79
2023/03/14 05:03:24;;;;;;;17.40;4.37;;;9.20;99.90;;;;;;4965190;28;20220;-79
2023/03/14 05:06:10;;;;;;;19.80;4.87;;;9.20;99.90;;;;;;4969294;28;20222;-77
2023/03/14 05:08:56;;;;;;;16.27;4.23;;;9.20;99.90;;;;;;4973713;28;20276;-79
2023/03/14 05:12:01;;;;;;;16.30;4.07;;;9.20;99.90;;;;;;4950347;28;20597;-78
2023/03/14 05:14:39;;;;;;;18.80;4.13;;;9.10;99.90;;;;;;4950840;28;20469;-78
2023/03/14 05:17:18;;;;;;;18.57;4.63;;;9.10;99.90;;;;;;4979729;28;20223;-78
2023/03/14 05:20:07;;;;;;;17.47;4.37;;;9.10;99.90;;;;;;4987642;28;20297;-78
2023/03/14 05:22:51;;;;;;;16.93;3.97;;;9.10;99.90;;;;;;4981316;28;20608;-78
2023/03/14 05:25:38;;;;;;;16.87;4.10;;;9.10;99.90;;;;;;4958502;28;20348;-78
2023/03/14 05:28:19;;;;;;;17.93;4.40;;;9.10;99.90;;;;;;4969039;28;20396;-79
2023/03/14 05:31:09;;;;;;;20.27;5.03;;;9.10;99.90;;;;;;4969108;28;20226;-79
2023/03/14 05:33:47;;;;;;;18.43;4.20;;;9.10;99.90;;;;;;4975056;28;20225;-79
2023/03/14 05:36:35;;;;;;;15.33;3.50;;;9.10;99.90;;;;;;4987478;28;20387;-79
2023/03/14 05:39:21;;;;;;;18.83;3.97;;;9.10;99.90;;;;;;4975134;28;20211;-79
2023/03/14 05:42:00;;;;;;;19.33;4.23;;;10.40;99.90;;;;;;4974127;28;20755;-79
2023/03/14 05:44:52;;;;;;;20.33;4.67;;;9.10;99.90;;;;;;4964433;28;20212;-79
2023/03/14 05:47:43;;;;;;;18.60;5.03;;;9.10;99.90;;;;;;4968288;28;20240;-79
2023/03/14 05:50:36;;;;;;;18.13;4.60;;;9.10;99.90;;;;;;4967079;28;20310;-79
2023/03/14 05:53:14;;;;;;;18.73;4.70;;;9.10;99.90;;;;;;4984366;28;20274;-79
2023/03/14 05:56:13;;;;;;;16.50;4.30;;;9.20;99.90;;;;;;4947832;28;20290;-78
2023/03/14 05:59:01;;;;;;;15.07;4.67;;;9.20;99.90;;;;;;4965688;28;20812;-79
2023/03/14 06:01:38;;;;;;;14.80;3.73;;;9.20;99.90;;;;;;4988892;28;20242;-79
2023/03/14 06:04:16;;;;;;;20.13;4.63;;;9.20;99.90;;;;;;4969356;28;20245;-79
2023/03/14 06:06:45;;;;;;;18.00;4.53;;;9.20;99.90;;;;;;4977025;28;20744;-79
2023/03/14 06:09:13;;;;;;;23.07;4.40;;;9.30;99.90;;;;;;4972288;28;20222;-78
2023/03/14 06:14:19;;;;;;;17.93;4.03;;;9.30;99.90;;;;;;4935854;29;20212;-78
2023/03/14 06:16:48;;;;;;;13.30;3.70;;;9.40;99.90;;;;;;4914548;29;20264;-78
2023/03/14 06:19:19;;;;;;;18.60;4.37;;;9.50;99.90;;;;;;4933452;29;20249;-78
2023/03/14 06:21:46;;;;;;;15.43;3.97;;;9.50;99.90;;;;;;4907738;29;20269;-78
2023/03/14 06:24:13;;;;;;;19.40;4.53;;;9.60;99.90;;;;;;4897098;29;20205;-78
2023/03/14 06:26:45;;;;;;;14.73;3.90;;;9.60;99.90;;;;;;4901738;29;20221;-77
2023/03/14 06:29:13;;;;;;;14.70;3.57;;;9.70;99.90;;;;;;4898128;29;20221;-77
2023/03/14 06:31:41;;;;;;;13.73;3.80;;;9.70;99.90;;;;;;4896179;29;20651;-76
2023/03/14 06:34:09;;;;;;;16.57;4.20;;;9.80;99.90;;;;;;4896532;29;20280;-76
2023/03/14 06:36:37;;;;;;;15.73;3.93;;;9.90;99.90;;;;;;4895566;29;20217;-78
2023/03/14 06:39:04;;;;;;;14.77;3.77;;;10.00;99.90;;;;;;4891978;29;20312;-78
2023/03/14 06:41:34;;;;;;;15.37;3.87;;;10.10;99.90;;;;;;4908823;29;20222;-78
2023/03/14 06:44:01;;;;;;;13.87;3.60;;;10.60;99.90;;;;;;4913373;29;20213;-80
2023/03/14 06:46:29;;;;;;;16.40;4.03;;;11.50;99.90;;;;;;4894680;29;20603;-78
2023/03/14 06:48:56;;;;;;;12.87;3.37;;;10.30;99.90;;;;;;4909884;29;20525;-78
2023/03/14 06:51:23;;;;;;;15.00;3.87;;;10.40;99.90;;;;;;4894240;29;20248;-77
2023/03/14 06:53:52;;;;;;;13.40;3.40;;;10.40;99.90;;;;;;4894178;29;20214;-77
2023/03/14 06:56:22;;;;;;;16.30;4.20;;;10.40;99.90;;;;;;4896201;29;20225;-77
2023/03/14 06:58:49;;;;;;;15.60;3.90;;;10.50;99.90;;;;;;4903185;29;20221;-77
2023/03/14 07:01:23;;;;;;;16.43;3.80;;;10.60;99.90;;;;;;4899773;29;20719;-77
2023/03/14 07:03:51;;;;;;;18.17;4.53;;;10.60;99.90;;;;;;4909314;29;20210;-77
2023/03/14 07:06:19;;;;;;;15.87;3.90;;;10.60;99.90;;;;;;4899328;29;20698;-76
2023/03/14 07:08:46;;;;;;;16.10;3.57;;;10.70;99.90;;;;;;4897133;29;20241;-76
2023/03/14 07:13:57;;;;;;;11.53;3.00;;;11.00;99.90;;;;;;5109872;23;20532;-77
2023/03/14 07:16:24;;;;;;;14.63;3.60;;;11.00;99.90;;;;;;4919897;29;20685;-76
2023/03/14 07:18:52;;;;;;;13.30;3.53;;;11.10;99.90;;;;;;4915314;29;20232;-77
2023/03/14 07:21:19;;;;;;;12.90;3.50;;;11.10;99.90;;;;;;4909464;29;20233;-77
2023/03/14 07:23:46;;;;;;;12.17;3.40;;;11.20;99.90;;;;;;4909587;29;20323;-78
2023/03/14 07:26:14;;;;;;;13.33;3.87;;;11.30;99.90;;;;;;4918087;29;20211;-78
2023/03/14 07:28:47;;;;;;;13.47;3.87;;;11.50;99.90;;;;;;4913225;29;20219;-80
2023/03/14 07:31:18;;;;;;;14.53;3.90;;;11.60;99.90;;;;;;4913394;29;20233;-80
2023/03/14 07:33:47;;;;;;;12.67;3.40;;;11.50;99.90;;;;;;4918773;29;20237;-78
2023/03/14 07:36:14;;;;;;;14.30;3.63;;;11.50;99.90;;;;;;4916977;29;20244;-79
2023/03/14 07:38:45;;;;;;;12.90;3.50;;;11.50;99.90;;;;;;4919792;29;20204;-78
2023/03/14 07:41:30;;;;;;;13.10;3.73;;;11.50;99.90;;;;;;4943549;29;20248;-78
2023/03/14 07:44:16;;;;;;;12.87;3.43;;;11.50;99.90;;;;;;4940081;29;20239;-78
2023/03/14 07:46:44;;;;;;;14.53;3.90;;;11.40;99.90;;;;;;4937090;29;20205;-76
2023/03/14 07:49:11;;;;;;;12.37;3.37;;;11.40;99.90;;;;;;4929863;29;20220;-76
2023/03/14 07:51:38;;;;;;;11.67;3.40;;;11.40;99.90;;;;;;4912495;29;20256;-76
2023/03/14 07:54:05;;;;;;;12.83;3.87;;;11.30;99.90;;;;;;4932978;29;20654;-77
2023/03/14 07:56:31;;;;;;;16.23;4.10;;;11.30;99.90;;;;;;4932187;29;20260;-77
2023/03/14 07:58:58;;;;;;;16.67;5.47;;;11.30;99.90;;;;;;4936642;29;20224;-78
2023/03/14 08:01:25;;;;;;;14.53;4.10;;;11.30;99.90;;;;;;4938858;29;20233;-77
2023/03/14 08:03:54;;;;;;;14.13;3.73;;;11.30;99.90;;;;;;4933158;29;20698;-77
2023/03/14 08:06:21;;;;;;;13.17;3.40;;;11.30;99.90;;;;;;4916525;29;20217;-77
2023/03/14 08:08:48;;;;;;;11.47;3.53;;;11.30;99.90;;;;;;4935239;29;20220;-76
2023/03/14 08:11:14;;;;;;;23.73;8.00;;;11.30;99.90;;;;;;4910594;29;20255;-76
2023/03/14 08:13:41;;;;;;;14.53;3.87;;;11.40;99.90;;;;;;4935186;29;20220;-77
2023/03/14 08:16:09;;;;;;;15.63;4.60;;;11.40;99.90;;;;;;4932894;29;20722;-76
2023/03/14 08:18:36;;;;;;;9.17;3.27;;;11.50;99.90;;;;;;4926415;29;20554;-77
2023/03/14 08:21:04;;;;;;;14.83;4.20;;;11.80;99.90;;;;;;4919254;29;20252;-77
2023/03/14 08:23:32;;;;;;;14.90;4.47;;;11.90;99.90;;;;;;4922621;29;20609;-77
2023/03/14 08:25:59;;;;;;;12.37;4.03;;;12.10;99.90;;;;;;4935542;29;20205;-75
2023/03/14 08:28:30;;;;;;;12.43;4.07;;;12.40;99.90;;;;;;4936822;29;20675;-76
2023/03/14 08:30:57;;;;;;;20.47;5.37;;;12.70;99.90;;;;;;4932213;29;20209;-77
2023/03/14 08:33:24;;;;;;;14.23;4.80;;;12.70;99.90;;;;;;4913824;29;20218;-76
2023/03/14 08:35:53;;;;;;;15.03;4.63;;;12.80;99.90;;;;;;4913831;29;20225;-77
2023/03/14 08:38:21;;;;;;;13.23;4.23;;;12.70;99.90;;;;;;4935223;29;20292;-76
2023/03/14 08:40:49;;;;;;;13.47;4.13;;;12.50;99.90;;;;;;4933446;29;20602;-77
2023/03/14 08:43:16;;;;;;;13.97;4.50;;;12.40;99.90;;;;;;4931951;29;20229;-76
2023/03/14 08:45:42;;;;;;;15.60;4.97;;;12.20;99.90;;;;;;4915284;29;20232;-76
2023/03/14 08:48:09;;;;;;;15.50;4.77;;;12.00;99.90;;;;;;4927008;29;20218;-76
2023/03/14 08:50:36;;;;;;;14.20;5.63;;;11.80;99.90;;;;;;4923811;29;20233;-76
2023/03/14 08:53:03;;;;;;;16.67;5.10;;;11.70;99.90;;;;;;4915927;29;20252;-76
2023/03/14 08:55:31;;;;;;;20.43;6.37;;;11.60;99.90;;;;;;4922640;29;20253;-77
2023/03/14 08:57:58;;;;;;;22.43;7.87;;;11.60;99.90;;;;;;4925544;29;20244;-77
2023/03/14 09:00:25;;;;;;;32.17;13.27;;;11.50;99.90;;;;;;4937463;29;20209;-76
2023/03/14 09:02:52;;;;;;;28.07;11.67;;;11.40;99.90;;;;;;4935416;29;20232;-76
2023/03/14 09:05:19;;;;;;;30.10;12.33;;;11.30;99.90;;;;;;4927212;29;20228;-78
2023/03/14 09:07:46;;;;;;;27.43;11.97;;;11.30;99.90;;;;;;4933636;29;20352;-77
2023/03/14 09:10:13;;;;;;;28.97;11.20;;;11.30;99.90;;;;;;4931452;29;20326;-76
2023/03/14 09:12:41;;;;;;;20.57;6.90;;;11.50;99.90;;;;;;4928149;29;20369;-78
2023/03/14 09:15:09;;;;;;;13.23;3.67;;;11.50;99.90;;;;;;4926127;29;20575;-77
2023/03/14 09:17:36;;;;;;;15.33;4.40;;;11.30;99.90;;;;;;4918817;29;20308;-77
2023/03/14 09:20:06;;;;;;;13.20;3.53;;;11.00;99.90;;;;;;4942321;29;20219;-77
2023/03/14 09:22:34;;;;;;;13.60;3.50;;;10.60;99.90;;;;;;4932168;29;20228;-76
2023/03/14 09:25:02;;;;;;;13.90;3.80;;;10.40;99.90;;;;;;4934122;29;20584;-77
2023/03/14 09:27:28;;;;;;;14.93;3.93;;;10.30;99.90;;;;;;4934597;29;20208;-78
2023/03/14 09:29:57;;;;;;;14.17;3.60;;;10.10;99.90;;;;;;4931027;29;20213;-78
2023/03/14 09:32:23;;;;;;;14.53;4.30;;;10.00;99.90;;;;;;4928139;29;20242;-77
2023/03/14 09:34:50;;;;;;;15.03;4.00;;;10.00;99.90;;;;;;4929956;29;20212;-77
2023/03/14 09:37:17;;;;;;;16.00;4.00;;;9.90;99.90;;;;;;4914745;29;20235;-77
2023/03/14 09:39:44;;;;;;;16.63;4.30;;;9.90;99.90;;;;;;4932143;29;20213;-77
2023/03/14 09:42:16;;;;;;;13.73;3.50;;;9.40;99.90;;;;;;4927679;29;20239;-77
2023/03/14 09:44:51;;;;;;;11.97;3.43;;;9.90;99.90;;;;;;4925098;29;20213;-76
2023/03/14 09:47:20;;;;;;;15.77;4.27;;;9.80;99.90;;;;;;4913463;29;20213;-76
2023/03/14 09:49:47;;;;;;;14.97;4.00;;;9.80;99.90;;;;;;4932961;29;20674;-78
2023/03/14 09:52:19;;;;;;;13.03;3.53;;;9.60;99.90;;;;;;4920232;29;20241;-75
2023/03/14 09:54:51;;;;;;;13.03;3.63;;;9.70;99.90;;;;;;4930577;29;20307;-75
2023/03/14 09:57:19;;;;;;;14.23;4.03;;;9.60;99.90;;;;;;4930770;29;20240;-76
2023/03/14 09:59:48;;;;;;;14.40;3.67;;;9.60;99.90;;;;;;4930962;29;20224;-75
2023/03/14 10:02:20;;;;;;;11.80;3.50;;;9.60;99.90;;;;;;4932920;29;20236;-75
2023/03/14 10:04:48;;;;;;;15.77;4.17;;;9.70;99.90;;;;;;4929953;29;20236;-75
2023/03/14 10:07:19;;;;;;;12.80;3.83;;;9.70;99.90;;;;;;4930015;29;20224;-76
2023/03/14 10:09:48;;;;;;;14.83;4.20;;;9.70;99.90;;;;;;4927457;29;20607;-77
2023/03/14 10:12:15;;;;;;;14.13;3.90;;;9.70;99.90;;;;;;4930805;29;20730;-78
2023/03/14 10:14:49;;;;;;;19.57;8.17;;;9.70;99.90;;;;;;4933189;29;20209;-76
2023/03/14 10:17:17;;;;;;;13.40;3.97;;;9.70;99.90;;;;;;4915640;29;20264;-77
2023/03/14 10:19:55;;;;;;;16.70;4.60;;;9.70;99.90;;;;;;4913418;29;20605;-76
2023/03/14 10:22:23;;;;;;;16.03;4.57;;;9.60;99.90;;;;;;4918621;29;20248;-76
2023/03/14 10:24:55;;;;;;;15.57;5.00;;;9.50;99.90;;;;;;4906046;29;20227;-76
2023/03/14 10:27:28;;;;;;;16.87;4.87;;;9.40;99.90;;;;;;4918562;29;20205;-76
2023/03/14 10:29:57;;;;;;;12.23;3.67;;;9.30;99.90;;;;;;4915289;29;20277;-76
2023/03/14 10:32:32;;;;;;;17.90;4.47;;;9.20;99.90;;;;;;4940226;28;20228;-76
2023/03/14 10:35:21;;;;;;;14.10;3.80;;;9.10;99.90;;;;;;4921473;29;20699;-76
2023/03/14 10:37:57;;;;;;;16.23;4.23;;;9.00;99.90;;;;;;4928582;29;20213;-76
2023/03/14 10:40:29;;;;;;;17.50;4.30;;;8.90;99.90;;;;;;4930163;29;20208;-76
2023/03/14 10:42:56;;;;;;;17.67;6.00;;;8.80;99.90;;;;;;4930319;29;20315;-76
2023/03/14 10:45:32;;;;;;;16.70;4.63;;;8.90;99.90;;;;;;4930474;29;20215;-76
2023/03/14 10:48:06;;;;;;;16.70;4.63;;;8.80;99.90;;;;;;4930563;29;20212;-77
2023/03/14 10:50:35;;;;;;;19.23;4.40;;;8.90;99.90;;;;;;4931827;29;20291;-76
2023/03/14 10:53:05;;;;;;;18.27;4.70;;;8.80;99.90;;;;;;4931714;29;20231;-76
2023/03/14 10:55:41;;;;;;;20.50;5.00;;;8.70;99.90;;;;;;4931188;29;20699;-76
2023/03/14 10:58:25;;;;;;;21.77;5.07;;;8.60;99.90;;;;;;4918459;29;20240;-76
2023/03/14 11:01:05;;;;;;;17.27;4.10;;;8.40;99.90;;;;;;4946547;29;20200;-76
2023/03/14 11:03:35;;;;;;;21.33;4.93;;;8.50;99.90;;;;;;4943709;29;20231;-76
2023/03/14 11:06:10;;;;;;;18.50;4.60;;;8.10;99.90;;;;;;4942586;28;20216;-76
2023/03/14 11:08:43;;;;;;;18.77;4.27;;;8.90;99.90;;;;;;4914542;29;20223;-77
2023/03/14 11:11:18;;;;;;;15.13;3.93;;;9.70;99.90;;;;;;4908123;29;20239;-76
2023/03/14 11:13:55;;;;;;;14.27;3.90;;;9.70;99.90;;;;;;4929756;29;20216;-76
2023/03/14 11:16:27;;;;;;;17.10;4.33;;;10.10;99.90;;;;;;4929579;29;20235;-76
2023/03/14 11:19:07;;;;;;;13.10;3.90;;;10.50;99.90;;;;;;4933457;29;20283;-76
2023/03/14 11:21:42;;;;;;;17.00;4.03;;;11.10;99.90;;;;;;4924407;29;20711;-76
2023/03/14 11:24:28;;;;;;;14.77;3.93;;;11.10;99.90;;;;;;4928487;29;20209;-77
2023/03/14 11:27:01;;;;;;;12.90;3.80;;;11.20;99.90;;;;;;4929913;29;20203;-76
2023/03/14 11:29:36;;;;;;;15.53;4.30;;;11.20;99.90;;;;;;4933602;29;20829;-77
2023/03/14 11:32:10;;;;;;;20.77;4.83;;;11.30;99.90;;;;;;4932992;29;20233;-77
2023/03/14 11:34:44;;;;;;;15.53;4.30;;;11.30;99.90;;;;;;4927849;29;20213;-76
2023/03/14 11:37:22;;;;;;;15.17;4.27;;;11.40;99.90;;;;;;4934718;29;20235;-76
2023/03/14 11:39:56;;;;;;;18.00;4.67;;;11.00;99.90;;;;;;4936182;29;20369;-75
2023/03/14 11:42:24;;;;;;;18.03;4.60;;;11.00;99.90;;;;;;4918832;29;20239;-76
2023/03/14 11:44:51;;;;;;;16.03;4.17;;;10.90;99.90;;;;;;4932869;29;20392;-77
2023/03/14 11:47:23;;;;;;;17.47;4.53;;;10.90;99.90;;;;;;4943680;29;20213;-76
2023/03/14 11:49:54;;;;;;;15.90;4.83;;;10.90;99.90;;;;;;4938853;29;20678;-76
2023/03/14 11:52:29;;;;;;;16.60;3.77;;;10.60;99.90;;;;;;5408475;23;20753;-76
2023/03/14 11:55:01;;;;;;;12.80;3.50;;;10.60;99.90;;;;;;4961385;28;20582;-75
2023/03/14 11:57:27;;;;;;;15.17;4.10;;;10.40;99.90;;;;;;4953694;29;20334;-76
2023/03/14 12:00:00;;;;;;;23.27;5.57;;;10.20;99.90;;;;;;4958046;29;20250;-76
2023/03/14 12:02:38;;;;;;;20.73;5.80;;;10.10;99.90;;;;;;4956260;28;20236;-75
2023/03/14 12:05:32;;;;;;;16.30;4.37;;;10.10;99.90;;;;;;4953206;29;20670;-76
2023/03/14 12:08:33;;;;;;;18.80;4.90;;;10.30;99.90;;;;;;4953525;29;20605;-78
2023/03/14 12:11:03;;;;;;;18.47;4.57;;;10.70;99.90;;;;;;4951084;29;20530;-78
2023/03/14 12:13:34;;;;;;;16.30;4.77;;;10.70;99.90;;;;;;4935337;29;20221;-79
2023/03/14 12:16:04;;;;;;;20.47;6.43;;;11.10;99.90;;;;;;4951597;28;20675;-78
2023/03/14 12:18:34;;;;;;;21.00;7.57;;;11.60;99.90;;;;;;4946132;29;20295;-78
2023/03/14 12:21:03;;;;;;;18.00;5.53;;;11.80;99.90;;;;;;4929304;29;20221;-78
2023/03/14 12:23:38;;;;;;;21.03;5.07;;;11.80;99.90;;;;;;4951771;29;20637;-78
2023/03/14 12:26:23;;;;;;;18.60;5.07;;;11.90;99.90;;;;;;4956749;28;20215;-80
2023/03/14 12:28:51;;;;;;;19.33;5.43;;;12.10;99.90;;;;;;4958276;28;20837;-80
2023/03/14 12:31:42;;;;;;;19.87;5.83;;;12.20;99.90;;;;;;4936577;29;20237;-77
2023/03/14 12:34:31;;;;;;;24.03;6.10;;;12.30;99.90;;;;;;4934718;29;20874;-79
2023/03/14 12:37:07;;;;;;;23.40;6.50;;;12.10;99.90;;;;;;4931234;29;20701;-78
2023/03/14 12:39:46;;;;;;;22.07;6.00;;;11.80;99.90;;;;;;4951696;28;20223;-77
2023/03/14 12:42:18;;;;;;;36.10;6.17;;;11.30;99.90;;;;;;5316979;23;20201;-78
2023/03/14 12:44:47;;;;;;;21.20;5.33;;;11.20;99.90;;;;;;4954249;28;20810;-78
2023/03/14 12:47:51;;;;;;;16.37;4.13;;;11.10;99.90;;;;;;4952472;28;20591;-77
2023/03/14 12:50:29;;;;;;;21.40;5.93;;;11.10;99.90;;;;;;4951007;29;20216;-78
2023/03/14 12:53:20;;;;;;;22.60;6.40;;;11.10;99.90;;;;;;4932407;29;20607;-78
2023/03/14 12:55:55;;;;;;;27.80;6.90;;;11.10;99.90;;;;;;4945703;29;20228;-77
2023/03/14 12:58:29;;;;;;;27.37;5.60;;;11.20;99.90;;;;;;4933803;29;20240;-78
2023/03/14 13:00:58;;;;;;;22.07;5.60;;;11.50;99.90;;;;;;4965918;23;20262;-74
2023/03/14 13:03:28;;;;;;;25.23;5.67;;;11.60;99.90;;;;;;4953711;28;20205;-73
2023/03/14 13:05:58;;;;;;;16.30;4.37;;;11.80;99.90;;;;;;4952604;29;20321;-74
2023/03/14 13:08:35;;;;;;;17.70;4.87;;;12.00;99.90;;;;;;4952280;29;20249;-75
2023/03/14 13:11:07;;;;;;;19.20;5.00;;;12.00;99.90;;;;;;4935060;28;20246;-75
2023/03/14 13:13:37;;;;;;;22.50;4.60;;;11.80;99.90;;;;;;4952284;29;20217;-73
2023/03/14 13:16:05;;;;;;;24.03;5.63;;;11.70;99.90;;;;;;4952338;29;20832;-73
2023/03/14 13:18:37;;;;;;;14.97;3.40;;;11.30;99.90;;;;;;4954213;29;20228;-74
2023/03/14 13:21:10;;;;;;;20.43;4.97;;;10.80;99.90;;;;;;4952921;28;20232;-73
2023/03/14 13:23:38;;;;;;;25.07;5.93;;;10.50;99.90;;;;;;4950962;28;20716;-73
2023/03/14 13:26:13;;;;;;;21.03;5.30;;;10.00;99.90;;;;;;4946057;29;20220;-74
2023/03/14 13:28:41;;;;;;;20.03;5.17;;;9.70;99.90;;;;;;4957146;28;20216;-74
2023/03/14 13:31:22;;;;;;;29.70;7.10;;;9.40;99.90;;;;;;4954549;28;20232;-74
2023/03/14 13:33:58;;;;;;;28.67;5.07;;;9.20;99.90;;;;;;4951603;29;20235;-74
2023/03/14 13:36:27;;;;;;;28.63;5.97;;;9.20;99.90;;;;;;4952396;29;20212;-74
2023/03/14 13:38:58;;;;;;;23.67;5.57;;;9.30;99.90;;;;;;4950067;29;20577;-73
2023/03/14 13:41:26;;;;;;;20.83;5.40;;;9.50;99.90;;;;;;4951550;28;20966;-73
2023/03/14 13:44:01;;;;;;;26.03;5.73;;;9.80;99.90;;;;;;4951243;28;20217;-72